sensor_id;sensor_type;location;lat;lon;timestamp;P1;durP1;ratioP1;P2;durP2;ratioP2
37787;SDS011;23627;53.302;-6.362;2024-02-26T00:00:38;6.80;;;4.10;;
37787;SDS011;23627;53.302;-6.362;2024-02-26T00:03:04;6.80;;;4.20;;
37787;SDS011;23627;53.302;-6.362;2024-02-26T00:05:30;5.85;;;4.00;;
37787;SDS011;23627;53.302;-6.362;2024-02-26T00:07:56;6.18;;;3.75;;
37787;SDS011;23627;53.302;-6.362;2024-02-26T00:10:22;6.90;;;3.80;;
37787;SDS011;23627;53.302;-6.362;2024-02-26T00:12:50;6.20;;;4.00;;
37787;SDS011;23627;53.302;-6.362;2024-02-26T00:15:16;6.18;;;3.90;;
37787;SDS011;23627;53.302;-6.362;2024-02-26T00:17:42;7.68;;;4.20;;
37787;SDS011;23627;53.302;-6.362;2024-02-26T00:20:08;6.57;;;3.80;;
37787;SDS011;23627;53.302;-6.362;2024-02-26T00:22:36;6.13;;;4.00;;
37787;SDS011;23627;53.302;-6.362;2024-02-26T00:25:02;7.55;;;4.30;;
37787;SDS011;23627;53.302;-6.362;2024-02-26T00:27:29;7.22;;;3.88;;
37787;SDS011;23627;53.302;-6.362;2024-02-26T00:29:54;7.50;;;4.40;;
37787;SDS011;23627;53.302;-6.362;2024-02-26T00:32:20;7.25;;;3.92;;
37787;SDS011;23627;53.302;-6.362;2024-02-26T00:34:46;6.30;;;4.20;;
37787;SDS011;23627;53.302;-6.362;2024-02-26T00:37:12;7.13;;;4.20;;
37787;SDS011;23627;53.302;-6.362;2024-02-26T00:39:37;6.97;;;4.28;;
37787;SDS011;23627;53.302;-6.362;2024-02-26T00:42:04;7.88;;;4.22;;
37787;SDS011;23627;53.302;-6.362;2024-02-26T00:44:30;7.40;;;4.40;;
37787;SDS011;23627;53.302;-6.362;2024-02-26T00:47:10;6.82;;;4.45;;
37787;SDS011;23627;53.302;-6.362;2024-02-26T00:49:36;6.03;;;4.07;;
37787;SDS011;23627;53.302;-6.362;2024-02-26T00:52:02;6.88;;;4.47;;
37787;SDS011;23627;53.302;-6.362;2024-02-26T00:54:28;6.78;;;4.10;;
37787;SDS011;23627;53.302;-6.362;2024-02-26T00:56:54;6.30;;;4.60;;
37787;SDS011;23627;53.302;-6.362;2024-02-26T00:59:20;9.52;;;4.45;;
37787;SDS011;23627;53.302;-6.362;2024-02-26T01:01:46;5.95;;;4.15;;
37787;SDS011;23627;53.302;-6.362;2024-02-26T01:04:11;6.25;;;4.25;;
37787;SDS011;23627;53.302;-6.362;2024-02-26T01:06:37;6.40;;;4.30;;
37787;SDS011;23627;53.302;-6.362;2024-02-26T01:09:03;7.47;;;4.22;;
37787;SDS011;23627;53.302;-6.362;2024-02-26T01:11:29;7.57;;;4.75;;
37787;SDS011;23627;53.302;-6.362;2024-02-26T01:13:54;7.32;;;4.53;;
37787;SDS011;23627;53.302;-6.362;2024-02-26T01:16:22;6.57;;;4.20;;
37787;SDS011;23627;53.302;-6.362;2024-02-26T01:18:48;7.03;;;4.30;;
37787;SDS011;23627;53.302;-6.362;2024-02-26T01:21:14;6.70;;;4.45;;
37787;SDS011;23627;53.302;-6.362;2024-02-26T01:23:40;8.35;;;4.75;;
37787;SDS011;23627;53.302;-6.362;2024-02-26T01:26:05;5.65;;;4.47;;
37787;SDS011;23627;53.302;-6.362;2024-02-26T01:28:31;7.18;;;4.20;;
37787;SDS011;23627;53.302;-6.362;2024-02-26T01:30:57;6.22;;;4.32;;
37787;SDS011;23627;53.302;-6.362;2024-02-26T01:33:24;9.48;;;4.63;;
37787;SDS011;23627;53.302;-6.362;2024-02-26T01:35:51;7.82;;;4.95;;
37787;SDS011;23627;53.302;-6.362;2024-02-26T01:38:18;7.28;;;4.38;;
37787;SDS011;23627;53.302;-6.362;2024-02-26T01:40:43;6.40;;;4.60;;
37787;SDS011;23627;53.302;-6.362;2024-02-26T01:43:09;7.22;;;4.82;;
37787;SDS011;23627;53.302;-6.362;2024-02-26T01:45:35;6.00;;;4.43;;
37787;SDS011;23627;53.302;-6.362;2024-02-26T01:48:01;6.43;;;4.15;;
37787;SDS011;23627;53.302;-6.362;2024-02-26T01:50:27;6.82;;;4.57;;
37787;SDS011;23627;53.302;-6.362;2024-02-26T01:52:53;7.82;;;4.57;;
37787;SDS011;23627;53.302;-6.362;2024-02-26T01:55:21;7.13;;;4.40;;
37787;SDS011;23627;53.302;-6.362;2024-02-26T01:57:49;6.70;;;4.47;;
37787;SDS011;23627;53.302;-6.362;2024-02-26T02:00:17;5.38;;;4.40;;
37787;SDS011;23627;53.302;-6.362;2024-02-26T02:02:43;5.18;;;3.95;;
37787;SDS011;23627;53.302;-6.362;2024-02-26T02:05:12;6.32;;;4.40;;
37787;SDS011;23627;53.302;-6.362;2024-02-26T02:07:39;6.93;;;4.32;;
37787;SDS011;23627;53.302;-6.362;2024-02-26T02:10:06;5.95;;;4.22;;
37787;SDS011;23627;53.302;-6.362;2024-02-26T02:12:32;6.32;;;4.32;;
37787;SDS011;23627;53.302;-6.362;2024-02-26T02:14:59;6.30;;;4.38;;
37787;SDS011;23627;53.302;-6.362;2024-02-26T02:17:26;7.93;;;4.22;;
37787;SDS011;23627;53.302;-6.362;2024-02-26T02:19:53;5.60;;;4.32;;
37787;SDS011;23627;53.302;-6.362;2024-02-26T02:22:18;5.20;;;3.95;;
37787;SDS011;23627;53.302;-6.362;2024-02-26T02:24:44;5.90;;;4.18;;
37787;SDS011;23627;53.302;-6.362;2024-02-26T02:27:11;5.35;;;3.97;;
37787;SDS011;23627;53.302;-6.362;2024-02-26T02:29:37;6.97;;;4.15;;
37787;SDS011;23627;53.302;-6.362;2024-02-26T02:32:03;4.80;;;3.88;;
37787;SDS011;23627;53.302;-6.362;2024-02-26T02:34:30;5.10;;;3.58;;
37787;SDS011;23627;53.302;-6.362;2024-02-26T02:36:56;5.03;;;3.50;;
37787;SDS011;23627;53.302;-6.362;2024-02-26T02:39:22;6.35;;;3.97;;
37787;SDS011;23627;53.302;-6.362;2024-02-26T02:41:48;5.72;;;3.92;;
37787;SDS011;23627;53.302;-6.362;2024-02-26T02:44:14;6.28;;;3.70;;
37787;SDS011;23627;53.302;-6.362;2024-02-26T02:46:40;7.70;;;3.80;;
37787;SDS011;23627;53.302;-6.362;2024-02-26T02:49:09;4.18;;;3.33;;
37787;SDS011;23627;53.302;-6.362;2024-02-26T02:51:35;6.40;;;4.05;;
37787;SDS011;23627;53.302;-6.362;2024-02-26T02:54:02;4.50;;;3.70;;
37787;SDS011;23627;53.302;-6.362;2024-02-26T02:56:28;6.45;;;3.67;;
37787;SDS011;23627;53.302;-6.362;2024-02-26T02:58:54;6.35;;;3.60;;
37787;SDS011;23627;53.302;-6.362;2024-02-26T03:01:20;5.63;;;3.33;;
37787;SDS011;23627;53.302;-6.362;2024-02-26T03:03:45;6.20;;;3.40;;
37787;SDS011;23627;53.302;-6.362;2024-02-26T03:06:11;7.43;;;3.92;;
37787;SDS011;23627;53.302;-6.362;2024-02-26T03:08:37;4.68;;;3.05;;
37787;SDS011;23627;53.302;-6.362;2024-02-26T03:11:04;4.85;;;3.30;;
37787;SDS011;23627;53.302;-6.362;2024-02-26T03:13:30;4.35;;;3.00;;
37787;SDS011;23627;53.302;-6.362;2024-02-26T03:15:56;4.43;;;3.15;;
37787;SDS011;23627;53.302;-6.362;2024-02-26T03:18:22;5.18;;;3.25;;
37787;SDS011;23627;53.302;-6.362;2024-02-26T03:20:48;4.65;;;3.10;;
37787;SDS011;23627;53.302;-6.362;2024-02-26T03:23:14;5.45;;;3.38;;
37787;SDS011;23627;53.302;-6.362;2024-02-26T03:25:44;4.25;;;3.10;;
37787;SDS011;23627;53.302;-6.362;2024-02-26T03:28:13;4.32;;;3.00;;
37787;SDS011;23627;53.302;-6.362;2024-02-26T03:30:39;4.43;;;3.10;;
37787;SDS011;23627;53.302;-6.362;2024-02-26T03:33:05;4.53;;;2.85;;
37787;SDS011;23627;53.302;-6.362;2024-02-26T03:35:31;4.40;;;3.03;;
37787;SDS011;23627;53.302;-6.362;2024-02-26T03:37:56;4.38;;;2.85;;
37787;SDS011;23627;53.302;-6.362;2024-02-26T03:40:22;5.45;;;2.90;;
37787;SDS011;23627;53.302;-6.362;2024-02-26T03:42:49;3.92;;;2.72;;
37787;SDS011;23627;53.302;-6.362;2024-02-26T03:45:15;4.57;;;2.70;;
37787;SDS011;23627;53.302;-6.362;2024-02-26T03:47:41;3.88;;;3.10;;
37787;SDS011;23627;53.302;-6.362;2024-02-26T03:50:07;4.03;;;2.83;;
37787;SDS011;23627;53.302;-6.362;2024-02-26T03:52:33;3.78;;;2.60;;
37787;SDS011;23627;53.302;-6.362;2024-02-26T03:54:59;3.63;;;2.70;;
37787;SDS011;23627;53.302;-6.362;2024-02-26T03:57:25;5.57;;;2.72;;
37787;SDS011;23627;53.302;-6.362;2024-02-26T03:59:51;3.90;;;2.58;;
37787;SDS011;23627;53.302;-6.362;2024-02-26T04:02:16;3.40;;;2.50;;
37787;SDS011;23627;53.302;-6.362;2024-02-26T04:04:44;3.70;;;2.30;;
37787;SDS011;23627;53.302;-6.362;2024-02-26T04:07:10;4.57;;;2.45;;
37787;SDS011;23627;53.302;-6.362;2024-02-26T04:09:37;4.70;;;2.88;;
37787;SDS011;23627;53.302;-6.362;2024-02-26T04:12:02;3.63;;;2.40;;
37787;SDS011;23627;53.302;-6.362;2024-02-26T04:14:28;4.65;;;2.45;;
37787;SDS011;23627;53.302;-6.362;2024-02-26T04:16:54;3.55;;;2.38;;
37787;SDS011;23627;53.302;-6.362;2024-02-26T04:19:20;4.57;;;2.40;;
37787;SDS011;23627;53.302;-6.362;2024-02-26T04:21:46;4.75;;;2.20;;
37787;SDS011;23627;53.302;-6.362;2024-02-26T04:24:11;5.78;;;2.50;;
37787;SDS011;23627;53.302;-6.362;2024-02-26T04:26:37;2.70;;;2.10;;
37787;SDS011;23627;53.302;-6.362;2024-02-26T04:29:03;3.95;;;2.22;;
37787;SDS011;23627;53.302;-6.362;2024-02-26T04:31:29;4.28;;;2.30;;
37787;SDS011;23627;53.302;-6.362;2024-02-26T04:33:57;3.45;;;2.35;;
37787;SDS011;23627;53.302;-6.362;2024-02-26T04:36:23;2.65;;;1.95;;
37787;SDS011;23627;53.302;-6.362;2024-02-26T04:38:53;2.97;;;2.03;;
37787;SDS011;23627;53.302;-6.362;2024-02-26T04:41:21;3.58;;;2.17;;
37787;SDS011;23627;53.302;-6.362;2024-02-26T04:43:47;3.53;;;2.35;;
37787;SDS011;23627;53.302;-6.362;2024-02-26T04:46:13;2.97;;;2.15;;
37787;SDS011;23627;53.302;-6.362;2024-02-26T04:48:42;3.58;;;2.03;;
37787;SDS011;23627;53.302;-6.362;2024-02-26T04:51:09;3.50;;;2.03;;
37787;SDS011;23627;53.302;-6.362;2024-02-26T04:53:35;3.80;;;2.00;;
37787;SDS011;23627;53.302;-6.362;2024-02-26T04:56:01;3.75;;;1.90;;
37787;SDS011;23627;53.302;-6.362;2024-02-26T04:58:27;2.85;;;2.00;;
37787;SDS011;23627;53.302;-6.362;2024-02-26T05:00:53;4.15;;;1.60;;
37787;SDS011;23627;53.302;-6.362;2024-02-26T05:03:20;2.38;;;1.60;;
37787;SDS011;23627;53.302;-6.362;2024-02-26T05:05:49;3.08;;;1.85;;
37787;SDS011;23627;53.302;-6.362;2024-02-26T05:08:17;3.90;;;2.00;;
37787;SDS011;23627;53.302;-6.362;2024-02-26T05:10:45;3.22;;;1.77;;
37787;SDS011;23627;53.302;-6.362;2024-02-26T05:13:14;2.63;;;1.80;;
37787;SDS011;23627;53.302;-6.362;2024-02-26T05:15:43;2.15;;;1.48;;
37787;SDS011;23627;53.302;-6.362;2024-02-26T05:18:10;2.20;;;1.52;;
37787;SDS011;23627;53.302;-6.362;2024-02-26T05:20:35;3.40;;;1.65;;
37787;SDS011;23627;53.302;-6.362;2024-02-26T05:23:02;3.25;;;1.35;;
37787;SDS011;23627;53.302;-6.362;2024-02-26T05:25:29;3.80;;;1.60;;
37787;SDS011;23627;53.302;-6.362;2024-02-26T05:27:55;1.80;;;1.20;;
37787;SDS011;23627;53.302;-6.362;2024-02-26T05:30:21;2.33;;;1.48;;
37787;SDS011;23627;53.302;-6.362;2024-02-26T05:32:47;2.67;;;1.38;;
37787;SDS011;23627;53.302;-6.362;2024-02-26T05:35:13;2.75;;;1.40;;
37787;SDS011;23627;53.302;-6.362;2024-02-26T05:37:40;2.75;;;1.48;;
37787;SDS011;23627;53.302;-6.362;2024-02-26T05:40:06;2.22;;;1.38;;
37787;SDS011;23627;53.302;-6.362;2024-02-26T05:42:32;2.28;;;1.38;;
37787;SDS011;23627;53.302;-6.362;2024-02-26T05:44:58;4.03;;;1.40;;
37787;SDS011;23627;53.302;-6.362;2024-02-26T05:47:24;1.85;;;1.20;;
37787;SDS011;23627;53.302;-6.362;2024-02-26T05:49:50;1.98;;;1.35;;
37787;SDS011;23627;53.302;-6.362;2024-02-26T05:52:16;2.90;;;1.27;;
37787;SDS011;23627;53.302;-6.362;2024-02-26T05:54:41;1.90;;;1.25;;
37787;SDS011;23627;53.302;-6.362;2024-02-26T05:57:07;2.58;;;1.20;;
37787;SDS011;23627;53.302;-6.362;2024-02-26T05:59:33;1.95;;;1.10;;
37787;SDS011;23627;53.302;-6.362;2024-02-26T06:01:59;2.25;;;1.20;;
37787;SDS011;23627;53.302;-6.362;2024-02-26T06:04:28;2.42;;;1.20;;
37787;SDS011;23627;53.302;-6.362;2024-02-26T06:06:54;3.28;;;1.38;;
37787;SDS011;23627;53.302;-6.362;2024-02-26T06:09:20;3.15;;;1.33;;
37787;SDS011;23627;53.302;-6.362;2024-02-26T06:11:47;2.33;;;1.13;;
37787;SDS011;23627;53.302;-6.362;2024-02-26T06:14:13;1.85;;;1.00;;
37787;SDS011;23627;53.302;-6.362;2024-02-26T06:16:43;2.50;;;1.10;;
37787;SDS011;23627;53.302;-6.362;2024-02-26T06:19:09;3.72;;;1.17;;
37787;SDS011;23627;53.302;-6.362;2024-02-26T06:21:35;1.60;;;0.90;;
37787;SDS011;23627;53.302;-6.362;2024-02-26T06:24:01;3.38;;;1.10;;
37787;SDS011;23627;53.302;-6.362;2024-02-26T06:26:26;2.03;;;0.95;;
37787;SDS011;23627;53.302;-6.362;2024-02-26T06:28:54;3.40;;;0.95;;
37787;SDS011;23627;53.302;-6.362;2024-02-26T06:31:23;2.10;;;1.00;;
37787;SDS011;23627;53.302;-6.362;2024-02-26T06:33:49;2.40;;;1.00;;
37787;SDS011;23627;53.302;-6.362;2024-02-26T06:36:15;2.33;;;0.90;;
37787;SDS011;23627;53.302;-6.362;2024-02-26T06:38:41;1.73;;;0.80;;
37787;SDS011;23627;53.302;-6.362;2024-02-26T06:41:07;1.65;;;0.95;;
37787;SDS011;23627;53.302;-6.362;2024-02-26T06:43:33;1.80;;;0.90;;
37787;SDS011;23627;53.302;-6.362;2024-02-26T06:45:59;4.10;;;0.95;;
37787;SDS011;23627;53.302;-6.362;2024-02-26T06:48:24;3.38;;;0.93;;
37787;SDS011;23627;53.302;-6.362;2024-02-26T06:50:50;1.33;;;0.80;;
37787;SDS011;23627;53.302;-6.362;2024-02-26T06:53:16;3.00;;;1.38;;
37787;SDS011;23627;53.302;-6.362;2024-02-26T06:55:45;2.78;;;0.95;;
37787;SDS011;23627;53.302;-6.362;2024-02-26T06:58:11;1.77;;;0.80;;
37787;SDS011;23627;53.302;-6.362;2024-02-26T07:00:36;2.03;;;0.80;;
37787;SDS011;23627;53.302;-6.362;2024-02-26T07:03:02;2.75;;;0.80;;
37787;SDS011;23627;53.302;-6.362;2024-02-26T07:05:28;2.00;;;0.70;;
37787;SDS011;23627;53.302;-6.362;2024-02-26T07:07:54;2.40;;;0.73;;
37787;SDS011;23627;53.302;-6.362;2024-02-26T07:10:20;3.40;;;0.73;;
37787;SDS011;23627;53.302;-6.362;2024-02-26T07:12:46;1.33;;;0.65;;
37787;SDS011;23627;53.302;-6.362;2024-02-26T07:15:12;1.58;;;0.70;;
37787;SDS011;23627;53.302;-6.362;2024-02-26T07:17:38;3.45;;;0.70;;
37787;SDS011;23627;53.302;-6.362;2024-02-26T07:20:07;2.80;;;0.80;;
37787;SDS011;23627;53.302;-6.362;2024-02-26T07:22:34;3.05;;;0.70;;
37787;SDS011;23627;53.302;-6.362;2024-02-26T07:25:00;2.72;;;0.93;;
37787;SDS011;23627;53.302;-6.362;2024-02-26T07:27:25;1.13;;;0.60;;
37787;SDS011;23627;53.302;-6.362;2024-02-26T07:29:51;2.35;;;0.70;;
37787;SDS011;23627;53.302;-6.362;2024-02-26T07:32:17;2.22;;;0.85;;
37787;SDS011;23627;53.302;-6.362;2024-02-26T07:34:47;3.20;;;0.70;;
37787;SDS011;23627;53.302;-6.362;2024-02-26T07:37:13;3.55;;;0.68;;
37787;SDS011;23627;53.302;-6.362;2024-02-26T07:39:38;2.65;;;0.70;;
37787;SDS011;23627;53.302;-6.362;2024-02-26T07:42:04;2.63;;;0.65;;
37787;SDS011;23627;53.302;-6.362;2024-02-26T07:44:30;2.17;;;0.80;;
37787;SDS011;23627;53.302;-6.362;2024-02-26T07:46:56;2.00;;;0.70;;
37787;SDS011;23627;53.302;-6.362;2024-02-26T07:49:22;2.72;;;0.70;;
37787;SDS011;23627;53.302;-6.362;2024-02-26T07:51:47;2.33;;;0.60;;
37787;SDS011;23627;53.302;-6.362;2024-02-26T07:54:13;2.38;;;0.77;;
37787;SDS011;23627;53.302;-6.362;2024-02-26T07:56:41;1.80;;;0.50;;
37787;SDS011;23627;53.302;-6.362;2024-02-26T07:59:07;3.10;;;0.73;;
37787;SDS011;23627;53.302;-6.362;2024-02-26T08:01:33;1.92;;;0.70;;
37787;SDS011;23627;53.302;-6.362;2024-02-26T08:03:59;1.35;;;0.63;;
37787;SDS011;23627;53.302;-6.362;2024-02-26T08:06:30;2.83;;;0.80;;
37787;SDS011;23627;53.302;-6.362;2024-02-26T08:08:56;1.50;;;0.65;;
37787;SDS011;23627;53.302;-6.362;2024-02-26T08:11:21;3.17;;;0.80;;
37787;SDS011;23627;53.302;-6.362;2024-02-26T08:13:47;2.33;;;0.70;;
37787;SDS011;23627;53.302;-6.362;2024-02-26T08:16:13;1.45;;;0.57;;
37787;SDS011;23627;53.302;-6.362;2024-02-26T08:18:41;2.05;;;0.50;;
37787;SDS011;23627;53.302;-6.362;2024-02-26T08:21:07;2.85;;;0.70;;
37787;SDS011;23627;53.302;-6.362;2024-02-26T08:23:33;2.97;;;0.60;;
37787;SDS011;23627;53.302;-6.362;2024-02-26T08:25:59;2.55;;;0.75;;
37787;SDS011;23627;53.302;-6.362;2024-02-26T08:28:25;2.50;;;0.60;;
37787;SDS011;23627;53.302;-6.362;2024-02-26T08:30:51;2.85;;;0.80;;
37787;SDS011;23627;53.302;-6.362;2024-02-26T08:33:16;2.28;;;0.73;;
37787;SDS011;23627;53.302;-6.362;2024-02-26T08:35:42;2.33;;;0.70;;
37787;SDS011;23627;53.302;-6.362;2024-02-26T08:38:08;3.42;;;0.60;;
37787;SDS011;23627;53.302;-6.362;2024-02-26T08:40:34;2.58;;;0.80;;
37787;SDS011;23627;53.302;-6.362;2024-02-26T08:43:00;4.10;;;0.80;;
37787;SDS011;23627;53.302;-6.362;2024-02-26T08:45:25;2.47;;;0.60;;
37787;SDS011;23627;53.302;-6.362;2024-02-26T08:47:52;6.30;;;0.80;;
37787;SDS011;23627;53.302;-6.362;2024-02-26T08:50:18;3.00;;;0.73;;
37787;SDS011;23627;53.302;-6.362;2024-02-26T08:52:43;2.90;;;0.77;;
37787;SDS011;23627;53.302;-6.362;2024-02-26T08:55:13;2.72;;;0.70;;
37787;SDS011;23627;53.302;-6.362;2024-02-26T08:57:39;3.08;;;0.63;;
37787;SDS011;23627;53.302;-6.362;2024-02-26T09:00:05;1.88;;;0.60;;
37787;SDS011;23627;53.302;-6.362;2024-02-26T09:02:32;2.97;;;0.70;;
37787;SDS011;23627;53.302;-6.362;2024-02-26T09:04:58;2.75;;;0.70;;
37787;SDS011;23627;53.302;-6.362;2024-02-26T09:07:23;1.92;;;0.50;;
37787;SDS011;23627;53.302;-6.362;2024-02-26T09:09:49;3.03;;;0.70;;
37787;SDS011;23627;53.302;-6.362;2024-02-26T09:12:16;2.45;;;0.40;;
37787;SDS011;23627;53.302;-6.362;2024-02-26T09:14:41;3.13;;;0.65;;
37787;SDS011;23627;53.302;-6.362;2024-02-26T09:20:51;2.75;;;0.70;;
37787;SDS011;23627;53.302;-6.362;2024-02-26T09:23:19;3.08;;;0.40;;
37787;SDS011;23627;53.302;-6.362;2024-02-26T09:25:45;3.10;;;0.80;;
37787;SDS011;23627;53.302;-6.362;2024-02-26T09:28:11;1.65;;;0.60;;
37787;SDS011;23627;53.302;-6.362;2024-02-26T09:30:37;2.53;;;0.60;;
37787;SDS011;23627;53.302;-6.362;2024-02-26T09:33:03;3.80;;;0.60;;
37787;SDS011;23627;53.302;-6.362;2024-02-26T09:35:38;1.00;;;0.38;;
37787;SDS011;23627;53.302;-6.362;2024-02-26T09:38:10;3.03;;;0.65;;
37787;SDS011;23627;53.302;-6.362;2024-02-26T09:40:38;4.50;;;0.70;;
37787;SDS011;23627;53.302;-6.362;2024-02-26T09:43:05;2.75;;;0.60;;
37787;SDS011;23627;53.302;-6.362;2024-02-26T09:45:35;2.72;;;0.68;;
37787;SDS011;23627;53.302;-6.362;2024-02-26T09:48:00;2.35;;;0.40;;
37787;SDS011;23627;53.302;-6.362;2024-02-26T09:50:29;3.53;;;0.57;;
37787;SDS011;23627;53.302;-6.362;2024-02-26T09:52:55;1.90;;;0.55;;
37787;SDS011;23627;53.302;-6.362;2024-02-26T09:55:24;3.38;;;0.40;;
37787;SDS011;23627;53.302;-6.362;2024-02-26T09:57:51;1.70;;;0.40;;
37787;SDS011;23627;53.302;-6.362;2024-02-26T10:00:18;2.10;;;0.50;;
37787;SDS011;23627;53.302;-6.362;2024-02-26T10:02:48;3.30;;;0.65;;
37787;SDS011;23627;53.302;-6.362;2024-02-26T10:05:16;2.33;;;0.35;;
37787;SDS011;23627;53.302;-6.362;2024-02-26T10:07:44;1.52;;;0.40;;
37787;SDS011;23627;53.302;-6.362;2024-02-26T10:10:11;1.42;;;0.40;;
37787;SDS011;23627;53.302;-6.362;2024-02-26T10:12:40;2.17;;;0.45;;
37787;SDS011;23627;53.302;-6.362;2024-02-26T10:15:08;1.80;;;0.45;;
37787;SDS011;23627;53.302;-6.362;2024-02-26T10:17:34;0.90;;;0.30;;
37787;SDS011;23627;53.302;-6.362;2024-02-26T10:20:20;1.77;;;0.50;;
37787;SDS011;23627;53.302;-6.362;2024-02-26T10:22:51;2.05;;;0.60;;
37787;SDS011;23627;53.302;-6.362;2024-02-26T10:25:17;2.80;;;0.50;;
37787;SDS011;23627;53.302;-6.362;2024-02-26T10:27:46;1.20;;;0.40;;
37787;SDS011;23627;53.302;-6.362;2024-02-26T10:33:51;2.55;;;0.40;;
37787;SDS011;23627;53.302;-6.362;2024-02-26T10:36:20;4.45;;;0.40;;
37787;SDS011;23627;53.302;-6.362;2024-02-26T10:38:46;2.55;;;0.47;;
37787;SDS011;23627;53.302;-6.362;2024-02-26T10:41:13;1.80;;;0.40;;
37787;SDS011;23627;53.302;-6.362;2024-02-26T10:43:42;2.33;;;0.35;;
37787;SDS011;23627;53.302;-6.362;2024-02-26T10:46:09;2.25;;;0.50;;
37787;SDS011;23627;53.302;-6.362;2024-02-26T10:48:35;2.85;;;0.40;;
37787;SDS011;23627;53.302;-6.362;2024-02-26T10:51:01;1.75;;;0.50;;
37787;SDS011;23627;53.302;-6.362;2024-02-26T10:53:28;2.13;;;0.40;;
37787;SDS011;23627;53.302;-6.362;2024-02-26T10:55:59;0.98;;;0.30;;
37787;SDS011;23627;53.302;-6.362;2024-02-26T10:58:33;1.85;;;0.30;;
37787;SDS011;23627;53.302;-6.362;2024-02-26T11:00:59;1.67;;;0.82;;
37787;SDS011;23627;53.302;-6.362;2024-02-26T11:03:26;2.33;;;0.40;;
37787;SDS011;23627;53.302;-6.362;2024-02-26T11:05:57;2.42;;;0.52;;
37787;SDS011;23627;53.302;-6.362;2024-02-26T11:08:26;2.15;;;0.30;;
37787;SDS011;23627;53.302;-6.362;2024-02-26T11:10:53;1.50;;;0.30;;
37787;SDS011;23627;53.302;-6.362;2024-02-26T11:13:21;2.05;;;0.30;;
37787;SDS011;23627;53.302;-6.362;2024-02-26T11:15:50;2.58;;;0.60;;
37787;SDS011;23627;53.302;-6.362;2024-02-26T11:18:19;2.55;;;0.30;;
37787;SDS011;23627;53.302;-6.362;2024-02-26T11:20:48;2.05;;;0.50;;
37787;SDS011;23627;53.302;-6.362;2024-02-26T11:23:16;3.40;;;0.47;;
37787;SDS011;23627;53.302;-6.362;2024-02-26T11:25:42;2.13;;;0.40;;
37787;SDS011;23627;53.302;-6.362;2024-02-26T11:28:09;2.35;;;0.30;;
37787;SDS011;23627;53.302;-6.362;2024-02-26T11:30:38;2.35;;;0.30;;
37787;SDS011;23627;53.302;-6.362;2024-02-26T11:33:08;2.88;;;0.43;;
37787;SDS011;23627;53.302;-6.362;2024-02-26T11:35:37;2.63;;;0.40;;
37787;SDS011;23627;53.302;-6.362;2024-02-26T11:38:04;1.77;;;0.32;;
37787;SDS011;23627;53.302;-6.362;2024-02-26T11:40:31;1.65;;;0.30;;
37787;SDS011;23627;53.302;-6.362;2024-02-26T11:43:01;2.10;;;0.60;;
37787;SDS011;23627;53.302;-6.362;2024-02-26T11:48:13;3.55;;;0.40;;
37787;SDS011;23627;53.302;-6.362;2024-02-26T11:50:41;2.10;;;0.30;;
37787;SDS011;23627;53.302;-6.362;2024-02-26T11:53:21;1.73;;;0.25;;
37787;SDS011;23627;53.302;-6.362;2024-02-26T11:55:48;1.63;;;0.28;;
37787;SDS011;23627;53.302;-6.362;2024-02-26T11:58:34;1.45;;;0.20;;
37787;SDS011;23627;53.302;-6.362;2024-02-26T12:01:00;1.80;;;0.40;;
37787;SDS011;23627;53.302;-6.362;2024-02-26T12:03:28;1.65;;;0.43;;
37787;SDS011;23627;53.302;-6.362;2024-02-26T12:05:54;2.63;;;0.40;;
37787;SDS011;23627;53.302;-6.362;2024-02-26T12:08:21;3.65;;;0.40;;
37787;SDS011;23627;53.302;-6.362;2024-02-26T12:10:48;1.50;;;0.30;;
37787;SDS011;23627;53.302;-6.362;2024-02-26T12:13:14;3.47;;;0.70;;
37787;SDS011;23627;53.302;-6.362;2024-02-26T12:15:43;1.90;;;0.30;;
37787;SDS011;23627;53.302;-6.362;2024-02-26T12:18:10;3.05;;;0.43;;
37787;SDS011;23627;53.302;-6.362;2024-02-26T12:20:43;5.40;;;0.50;;
37787;SDS011;23627;53.302;-6.362;2024-02-26T12:23:14;2.15;;;0.30;;
37787;SDS011;23627;53.302;-6.362;2024-02-26T12:25:43;0.70;;;0.30;;
37787;SDS011;23627;53.302;-6.362;2024-02-26T12:28:09;2.05;;;0.40;;
37787;SDS011;23627;53.302;-6.362;2024-02-26T12:30:35;0.90;;;0.20;;
37787;SDS011;23627;53.302;-6.362;2024-02-26T12:33:01;2.10;;;0.30;;
37787;SDS011;23627;53.302;-6.362;2024-02-26T12:35:31;1.42;;;0.45;;
37787;SDS011;23627;53.302;-6.362;2024-02-26T12:37:57;3.15;;;0.30;;
37787;SDS011;23627;53.302;-6.362;2024-02-26T12:40:24;1.10;;;0.20;;
37787;SDS011;23627;53.302;-6.362;2024-02-26T12:42:52;3.38;;;0.40;;
37787;SDS011;23627;53.302;-6.362;2024-02-26T12:45:20;1.98;;;0.30;;
37787;SDS011;23627;53.302;-6.362;2024-02-26T12:47:46;2.67;;;0.30;;
37787;SDS011;23627;53.302;-6.362;2024-02-26T12:50:13;1.50;;;0.30;;
37787;SDS011;23627;53.302;-6.362;2024-02-26T12:52:39;1.25;;;0.57;;
37787;SDS011;23627;53.302;-6.362;2024-02-26T12:55:10;2.05;;;0.22;;
37787;SDS011;23627;53.302;-6.362;2024-02-26T12:57:40;2.45;;;0.30;;
37787;SDS011;23627;53.302;-6.362;2024-02-26T13:00:08;2.40;;;0.35;;
37787;SDS011;23627;53.302;-6.362;2024-02-26T13:02:38;1.42;;;0.30;;
37787;SDS011;23627;53.302;-6.362;2024-02-26T13:05:05;1.05;;;0.20;;
37787;SDS011;23627;53.302;-6.362;2024-02-26T13:07:33;3.45;;;0.52;;
37787;SDS011;23627;53.302;-6.362;2024-02-26T13:09:59;1.38;;;0.30;;
37787;SDS011;23627;53.302;-6.362;2024-02-26T13:12:29;2.05;;;0.30;;
37787;SDS011;23627;53.302;-6.362;2024-02-26T13:14:59;2.97;;;0.35;;
37787;SDS011;23627;53.302;-6.362;2024-02-26T13:17:26;2.20;;;0.40;;
37787;SDS011;23627;53.302;-6.362;2024-02-26T13:19:53;1.63;;;0.25;;
37787;SDS011;23627;53.302;-6.362;2024-02-26T13:22:23;1.58;;;0.30;;
37787;SDS011;23627;53.302;-6.362;2024-02-26T13:28:31;2.47;;;0.40;;
37787;SDS011;23627;53.302;-6.362;2024-02-26T13:30:57;3.50;;;0.30;;
37787;SDS011;23627;53.302;-6.362;2024-02-26T13:33:26;2.38;;;0.30;;
37787;SDS011;23627;53.302;-6.362;2024-02-26T13:35:57;1.42;;;0.28;;
37787;SDS011;23627;53.302;-6.362;2024-02-26T13:38:23;3.30;;;0.40;;
37787;SDS011;23627;53.302;-6.362;2024-02-26T13:40:52;3.42;;;0.50;;
37787;SDS011;23627;53.302;-6.362;2024-02-26T13:43:19;2.58;;;0.40;;
37787;SDS011;23627;53.302;-6.362;2024-02-26T13:45:45;2.58;;;0.30;;
37787;SDS011;23627;53.302;-6.362;2024-02-26T13:48:11;1.40;;;0.30;;
37787;SDS011;23627;53.302;-6.362;2024-02-26T13:50:38;2.92;;;0.35;;
37787;SDS011;23627;53.302;-6.362;2024-02-26T13:53:04;1.08;;;0.45;;
37787;SDS011;23627;53.302;-6.362;2024-02-26T13:55:31;5.45;;;0.50;;
37787;SDS011;23627;53.302;-6.362;2024-02-26T13:57:57;1.38;;;0.40;;
37787;SDS011;23627;53.302;-6.362;2024-02-26T14:00:26;1.38;;;0.40;;
37787;SDS011;23627;53.302;-6.362;2024-02-26T14:02:54;1.70;;;0.50;;
37787;SDS011;23627;53.302;-6.362;2024-02-26T14:05:19;0.77;;;0.40;;
37787;SDS011;23627;53.302;-6.362;2024-02-26T14:07:45;2.17;;;0.32;;
37787;SDS011;23627;53.302;-6.362;2024-02-26T14:10:14;1.58;;;0.40;;
37787;SDS011;23627;53.302;-6.362;2024-02-26T14:12:41;2.25;;;0.50;;
37787;SDS011;23627;53.302;-6.362;2024-02-26T14:15:07;2.20;;;0.55;;
37787;SDS011;23627;53.302;-6.362;2024-02-26T14:17:35;2.10;;;0.40;;
37787;SDS011;23627;53.302;-6.362;2024-02-26T14:20:04;3.40;;;0.65;;
37787;SDS011;23627;53.302;-6.362;2024-02-26T14:22:30;2.65;;;0.70;;
37787;SDS011;23627;53.302;-6.362;2024-02-26T14:24:57;1.13;;;0.38;;
37787;SDS011;23627;53.302;-6.362;2024-02-26T14:30:19;2.38;;;0.60;;
37787;SDS011;23627;53.302;-6.362;2024-02-26T14:32:51;2.22;;;0.60;;
37787;SDS011;23627;53.302;-6.362;2024-02-26T14:35:17;3.43;;;0.50;;
37787;SDS011;23627;53.302;-6.362;2024-02-26T14:37:43;3.58;;;0.70;;
37787;SDS011;23627;53.302;-6.362;2024-02-26T14:40:11;2.38;;;0.60;;
37787;SDS011;23627;53.302;-6.362;2024-02-26T14:42:44;2.05;;;0.50;;
37787;SDS011;23627;53.302;-6.362;2024-02-26T14:45:10;1.70;;;0.50;;
37787;SDS011;23627;53.302;-6.362;2024-02-26T14:47:40;2.47;;;0.65;;